Rossini — 9HA3643 — position and weather

sailwx.info

Track history (hours):
 
Tides and Currents Weather Stations Pressure Air Temp Water Temp Dewpoint Dewpoint Depression Visibility Wind Speed Wind Dir Waves Ship Positions

Rossini

Last reported at 2018-Jan-12 10:28 UTC. Time now 2018-Jan-21 10:45 UTC.
Position N 04°46' E 000°07'.
Warning: this ship's position is 9 days out of date.

Length 207 m; draft 8.4 m.

Type: Cargo ship. MMSI: 229824000.

Date/timePositionNaut miles runAvg speedWind from/ knotsBaromVisibWave heightAir tempDewpointWater temp
2018-Jan-12 10:28N 04°46' E 000°07'12 9.2
2018-Jan-12 09:11N 04°52' E 000°17'2 8.9
2018-Jan-12 08:58N 04°53' E 000°19'6 9.3
2018-Jan-12 08:21N 04°56' E 000°24'3 9.4
2018-Jan-12 08:00N 04°58' E 000°26'5810.9
2018-Jan-12 02:44N 05°26' E 001°17'510.4
2018-Jan-12 02:13N 05°29' E 001°21'1010.4
2018-Jan-12 01:15N 05°34' E 001°30'4011.2
2018-Jan-11 21:41N 05°57' E 002°03'211.3
2018-Jan-11 21:30N 05°58' E 002°05'511.2
2018-Jan-11 21:00N 06°01' E 002°09'611.1
2018-Jan-11 20:29N 06°05' E 002°14'511.0
2018-Jan-11 20:00N 06°08' E 002°18'610.8
2018-Jan-11 19:30N 06°11' E 002°22'510.5
2018-Jan-11 19:00N 06°15' E 002°26'510.0
2018-Jan-11 18:30N 06°20' E 002°27'2 0.1
2018-Jan-11 00:41N 06°21' E 002°25'0 0.0
2018-Jan-11 00:29N 06°21' E 002°25'0 0.0
2018-Jan-11 00:00N 06°21' E 002°25'0 0.8
2018-Jan-10 23:30N 06°21' E 002°26'6 8.6
2018-Jan-10 22:51N 06°17' E 002°30'2 0.1
2018-Jan-09 17:03N 06°16' E 002°31'0 0.1
2018-Jan-09 16:57N 06°16' E 002°31'0 0.2
2018-Jan-09 16:30N 06°16' E 002°31'  
Track history (hours):
 
Tides and Currents Weather Stations Pressure Air Temp Water Temp Dewpoint Dewpoint Depression Visibility Wind Speed Wind Dir Waves Ship Positions

Rossini

Last reported at 2018-Jan-12 10:28 UTC. Time now 2018-Jan-21 10:45 UTC.
Position N 04°46' E 000°07'.
Warning: this ship's position is 9 days out of date.

Length 207 m; draft 8.4 m.

Type: Cargo ship. MMSI: 229824000.

Date/timePositionNaut miles runAvg speedWind from/ knotsBaromVisibWave heightAir tempDewpointWater temp
2018-Jan-12 10:28N 04°46' E 000°07'12 9.2
2018-Jan-12 09:11N 04°52' E 000°17'2 8.9
2018-Jan-12 08:58N 04°53' E 000°19'6 9.3
2018-Jan-12 08:21N 04°56' E 000°24'3 9.4
2018-Jan-12 08:00N 04°58' E 000°26'5810.9
2018-Jan-12 02:44N 05°26' E 001°17'510.4
2018-Jan-12 02:13N 05°29' E 001°21'1010.4
2018-Jan-12 01:15N 05°34' E 001°30'4011.2
2018-Jan-11 21:41N 05°57' E 002°03'211.3
2018-Jan-11 21:30N 05°58' E 002°05'511.2
2018-Jan-11 21:00N 06°01' E 002°09'611.1
2018-Jan-11 20:29N 06°05' E 002°14'511.0
2018-Jan-11 20:00N 06°08' E 002°18'610.8
2018-Jan-11 19:30N 06°11' E 002°22'510.5
2018-Jan-11 19:00N 06°15' E 002°26'510.0
2018-Jan-11 18:30N 06°20' E 002°27'2 0.1
2018-Jan-11 00:41N 06°21' E 002°25'0 0.0
2018-Jan-11 00:29N 06°21' E 002°25'0 0.0
2018-Jan-11 00:00N 06°21' E 002°25'0 0.8
2018-Jan-10 23:30N 06°21' E 002°26'6 8.6
2018-Jan-10 22:51N 06°17' E 002°30'2 0.1
2018-Jan-09 17:03N 06°16' E 002°31'0 0.1
2018-Jan-09 16:57N 06°16' E 002°31'0 0.2
2018-Jan-09 16:30N 06°16' E 002°31'  

Dump ship's entire track history